Sagrada, Missouri
Current Conditions -  °F | °C
As of 4:15 AM on Friday 31 Oct 2014 (Local Time) from KH21 Reporting Station
Overcast Overcast  
Wind Chill: 43°   Ceiling: 5500
Heat Index: 48°   Visibility: 10mi
Dew Point: 41°   Wind: 12mph
Humidity: 76%   Direction: 310°NW
Pressure: 30.17"   Gusts: 17mph
Location:  38.1656°N, 93.1481°W
Report Text: KH21 310915Z AUTO 31010G15KT 10SM OVC055 09/05 A3017 RMK AO2
Loading
Personal Weather Stations






























Interactive Weather Map New forecast layout! Learn more

10-Day Weather Forecast

Advertisements
Track Severe Weather on mobile